Time;durP1;ratioP1;P1;durP2;ratioP2;P2;SDS_P1;SDS_P2;PMS_P1;PMS_P2;Temp;Humidity;BMP_temperature;BMP_pressure;BME280_temperature;BME280_humidity;BME280_pressure;Samples;Min_cycle;Max_cycle;Signal;HPM_P1;HPM_P2
2023/12/24 00:00:47;;;;;;;0.00;0.00;;;;;;;9.69;100.00;98448.81;5134145;27;20212;-53
2023/12/24 00:03:34;;;;;;;0.10;0.10;;;;;;;9.67;100.00;98436.66;5134123;27;20353;-53
2023/12/24 00:06:20;;;;;;;0.00;0.00;;;;;;;9.61;100.00;98442.38;5132662;27;20221;-53
2023/12/24 00:09:09;;;;;;;0.00;0.00;;;;;;;9.69;100.00;98446.16;5133564;27;20193;-52
2023/12/24 00:11:56;;;;;;;0.00;0.00;;;;;;;9.55;100.00;98461.28;5134126;27;20186;-53
2023/12/24 00:14:42;;;;;;;0.00;0.00;;;;;;;9.53;100.00;98440.25;5134250;27;20197;-53
2023/12/24 00:17:31;;;;;;;0.00;0.00;;;;;;;9.50;100.00;98463.44;5133973;27;20188;-52
2023/12/24 00:20:18;;;;;;;0.00;0.00;;;;;;;9.49;100.00;98453.81;5134080;27;20205;-52
2023/12/24 00:23:06;;;;;;;0.00;0.00;;;;;;;9.51;100.00;98452.75;5132688;27;20188;-52
2023/12/24 00:25:54;;;;;;;0.00;0.00;;;;;;;9.45;100.00;98451.38;5133689;27;20225;-53
2023/12/24 00:28:41;;;;;;;0.00;0.00;;;;;;;9.40;100.00;98465.88;5134004;27;20181;-52
2023/12/24 00:31:28;;;;;;;0.00;0.00;;;;;;;9.44;100.00;98464.69;5133915;27;20316;-52
2023/12/24 00:34:15;;;;;;;0.00;0.00;;;;;;;9.43;100.00;98473.59;5132935;28;20327;-53
2023/12/24 00:37:02;;;;;;;0.00;0.00;;;;;;;9.44;100.00;98462.06;5131490;28;20193;-52
2023/12/24 00:39:49;;;;;;;0.00;0.00;;;;;;;9.35;100.00;98468.84;5133889;28;20193;-53
2023/12/24 00:42:39;;;;;;;0.00;0.00;;;;;;;9.39;100.00;98462.41;5133901;28;20269;-53
2023/12/24 00:45:25;;;;;;;0.00;0.00;;;;;;;9.34;100.00;98453.09;5133716;28;20660;-53
2023/12/24 00:48:12;;;;;;;0.00;0.00;;;;;;;9.34;100.00;98458.38;5133890;28;20193;-52
2023/12/24 00:50:59;;;;;;;0.10;0.10;;;;;;;9.36;100.00;98454.69;5132454;28;20211;-53
2023/12/24 00:53:46;;;;;;;0.00;0.00;;;;;;;9.34;100.00;98453.09;5133577;28;20193;-53
2023/12/24 00:56:33;;;;;;;0.00;0.00;;;;;;;9.35;100.00;98457.44;5133667;28;20189;-53
2023/12/24 00:59:21;;;;;;;0.00;0.00;;;;;;;9.37;100.00;98452.91;5133623;28;20197;-52
2023/12/24 01:02:08;;;;;;;0.00;0.00;;;;;;;9.32;100.00;98452.38;5133700;28;20194;-52
2023/12/24 01:04:55;;;;;;;0.00;0.00;;;;;;;9.36;100.00;98459.97;5133495;28;20189;-53
2023/12/24 01:07:42;;;;;;;0.00;0.00;;;;;;;9.40;100.00;98456.16;5131928;28;20237;-52
2023/12/24 01:10:29;;;;;;;0.00;0.00;;;;;;;9.42;100.00;98458.69;5133546;28;20197;-52
2023/12/24 01:13:19;;;;;;;0.10;0.10;;;;;;;9.43;100.00;98463.88;5133570;28;20189;-52
2023/12/24 01:16:07;;;;;;;0.00;0.00;;;;;;;9.43;100.00;98468.31;5132519;28;20325;-52
2023/12/24 01:18:54;;;;;;;0.00;0.00;;;;;;;9.46;100.00;98470.75;5133198;27;20267;-53
2023/12/24 01:21:41;;;;;;;0.10;0.10;;;;;;;9.46;100.00;98470.75;5135124;27;20239;-52
2023/12/24 01:24:28;;;;;;;0.00;0.00;;;;;;;9.46;100.00;98455.75;5137433;27;20197;-52
2023/12/24 01:27:16;;;;;;;0.00;0.00;;;;;;;9.50;100.00;98448.44;5136106;27;20263;-52
2023/12/24 01:30:04;;;;;;;0.00;0.00;;;;;;;9.45;100.00;98446.09;5137252;27;20189;-52
2023/12/24 01:32:52;;;;;;;0.00;0.00;;;;;;;9.50;100.00;98445.78;5136198;27;20190;-52
2023/12/24 01:35:41;;;;;;;0.00;0.00;;;;;;;9.46;100.00;98454.91;5136704;27;20197;-53
2023/12/24 01:38:28;;;;;;;0.00;0.00;;;;;;;9.45;100.00;98445.25;5136036;27;20205;-52
2023/12/24 01:41:16;;;;;;;0.00;0.00;;;;;;;9.50;100.00;98444.94;5136977;27;20189;-52
2023/12/24 01:44:03;;;;;;;0.00;0.00;;;;;;;9.53;100.00;98439.41;5136974;27;20198;-52
2023/12/24 01:46:50;;;;;;;0.00;0.00;;;;;;;9.56;100.00;98439.22;5136771;27;20288;-52
2023/12/24 01:49:38;;;;;;;0.00;0.00;;;;;;;9.67;100.00;98436.66;5136945;27;20193;-52
2023/12/24 01:52:26;;;;;;;0.00;0.00;;;;;;;9.60;100.00;98438.88;5135610;27;20244;-52
2023/12/24 01:55:13;;;;;;;0.00;0.00;;;;;;;9.66;100.00;98445.53;5136573;27;20190;-52
2023/12/24 01:58:00;;;;;;;0.00;0.00;;;;;;;9.69;100.00;98447.97;5135640;27;20258;-52
2023/12/24 02:00:48;;;;;;;0.00;0.00;;;;;;;9.72;100.00;98450.38;5135709;27;20263;-52
2023/12/24 02:03:35;;;;;;;0.00;0.00;;;;;;;9.72;100.00;98443.28;5136541;27;20193;-52
2023/12/24 02:06:25;;;;;;;0.10;0.10;;;;;;;9.75;100.00;98452.81;5134275;27;20255;-52
2023/12/24 02:09:11;;;;;;;0.00;0.00;;;;;;;9.73;100.00;98455.53;5135542;27;20236;-53
2023/12/24 02:11:58;;;;;;;0.00;0.00;;;;;;;9.77;100.00;98465.91;5135227;27;20223;-52
2023/12/24 02:14:45;;;;;;;0.00;0.00;;;;;;;9.80;100.00;98461.25;5135366;27;20201;-53
2023/12/24 02:17:35;;;;;;;0.00;0.00;;;;;;;9.85;100.00;98456.47;5136296;27;20308;-52
2023/12/24 02:20:25;;;;;;;0.00;0.00;;;;;;;9.84;100.00;98454.75;5135054;27;20181;-52
2023/12/24 02:23:15;;;;;;;0.00;0.00;;;;;;;9.85;100.00;98466.22;5135732;27;20198;-52
2023/12/24 02:26:07;;;;;;;0.00;0.00;;;;;;;9.87;100.00;98467.78;5135173;27;20198;-52
2023/12/24 02:29:00;;;;;;;0.10;0.10;;;;;;;9.87;100.00;98472.25;5136032;27;20252;-52
2023/12/24 02:31:48;;;;;;;0.00;0.00;;;;;;;9.85;100.00;98460.94;5135536;27;20198;-52
2023/12/24 02:34:38;;;;;;;0.00;0.00;;;;;;;9.83;100.00;98446.94;5136077;27;20320;-53
2023/12/24 02:37:25;;;;;;;0.07;0.07;;;;;;;9.83;100.00;98431.09;5134651;27;20190;-52
2023/12/24 02:40:13;;;;;;;0.00;0.00;;;;;;;9.86;100.00;98444.09;5136000;27;20197;-53
2023/12/24 02:43:00;;;;;;;0.10;0.10;;;;;;;9.84;100.00;98436.25;5135758;27;20205;-52
2023/12/24 02:45:46;;;;;;;0.00;0.00;;;;;;;9.86;100.00;98433.53;5135826;27;20558;-53
2023/12/24 02:48:33;;;;;;;0.00;0.00;;;;;;;9.82;100.00;98443.47;5135414;27;20216;-52
2023/12/24 02:51:20;;;;;;;0.00;0.00;;;;;;;9.81;100.00;98433.00;5133333;27;20197;-52
2023/12/24 02:54:07;;;;;;;0.00;0.00;;;;;;;9.73;100.00;98441.47;5135539;27;20714;-52
2023/12/24 02:56:55;;;;;;;0.00;0.00;;;;;;;9.70;100.00;98433.78;5135573;27;20193;-52
2023/12/24 02:59:42;;;;;;;0.00;0.00;;;;;;;9.69;100.00;98429.44;5135553;27;20201;-52
2023/12/24 03:02:29;;;;;;;0.10;0.10;;;;;;;9.71;100.00;98441.59;5134566;27;20220;-52
2023/12/24 03:05:16;;;;;;;0.00;0.00;;;;;;;9.73;100.00;98437.03;5134442;27;20303;-53
2023/12/24 03:08:03;;;;;;;0.00;0.00;;;;;;;9.70;100.00;98431.13;5134255;27;20217;-53
2023/12/24 03:10:50;;;;;;;0.00;0.00;;;;;;;9.71;100.00;98435.47;5134369;27;20197;-52
2023/12/24 03:13:39;;;;;;;0.00;0.00;;;;;;;9.69;100.00;98413.59;5134337;27;20307;-53
2023/12/24 03:16:26;;;;;;;0.00;0.00;;;;;;;9.63;100.00;98411.38;5135097;27;20193;-53
2023/12/24 03:19:13;;;;;;;0.00;0.00;;;;;;;9.63;100.00;98387.56;5134787;27;20328;-52
2023/12/24 03:22:00;;;;;;;0.07;0.07;;;;;;;9.61;100.00;98377.13;5133708;27;20198;-53
2023/12/24 03:24:47;;;;;;;0.00;0.00;;;;;;;9.64;100.00;98379.53;5135060;27;20296;-52
2023/12/24 03:27:34;;;;;;;0.00;0.00;;;;;;;9.65;100.00;98381.25;5134754;27;20209;-53
2023/12/24 03:30:22;;;;;;;0.00;0.00;;;;;;;9.68;100.00;98390.75;5135075;27;20197;-53
2023/12/24 03:33:10;;;;;;;0.00;0.00;;;;;;;9.67;100.00;98378.47;5133796;27;20268;-52
2023/12/24 03:35:56;;;;;;;0.00;0.00;;;;;;;9.72;100.00;98382.47;5133380;27;20201;-53
2023/12/24 03:38:43;;;;;;;0.00;0.00;;;;;;;9.71;100.00;98366.72;5134683;27;20197;-53
2023/12/24 03:41:30;;;;;;;0.00;0.00;;;;;;;9.70;100.00;98381.75;5134577;27;20547;-52
2023/12/24 03:44:17;;;;;;;0.00;0.00;;;;;;;9.70;100.00;98378.25;5133700;27;20189;-53
2023/12/24 03:47:06;;;;;;;0.00;0.00;;;;;;;9.74;100.00;98369.97;5134548;27;20588;-53
2023/12/24 03:49:53;;;;;;;0.00;0.00;;;;;;;9.65;100.00;98365.38;5134525;27;20198;-53
2023/12/24 03:52:41;;;;;;;0.00;0.00;;;;;;;9.71;100.00;98366.72;5133174;27;20247;-53
2023/12/24 03:55:27;;;;;;;0.00;0.00;;;;;;;9.69;100.00;98356.25;5134383;27;20205;-52
2023/12/24 03:58:14;;;;;;;0.00;0.00;;;;;;;9.67;100.00;98346.75;5134354;27;20189;-52
2023/12/24 04:01:01;;;;;;;0.00;0.00;;;;;;;9.65;100.00;98352.16;5134376;27;20201;-53
2023/12/24 04:03:50;;;;;;;0.00;0.00;;;;;;;9.75;100.00;98334.66;5134226;27;20229;-53
2023/12/24 04:06:37;;;;;;;0.00;0.00;;;;;;;9.71;100.00;98351.69;5132038;27;20231;-52
2023/12/24 04:09:24;;;;;;;0.10;0.10;;;;;;;9.78;100.00;98349.44;5134015;27;20263;-53
2023/12/24 04:12:11;;;;;;;0.00;0.00;;;;;;;9.79;100.00;98343.19;5134279;27;20212;-52
2023/12/24 04:14:57;;;;;;;0.10;0.10;;;;;;;9.80;100.00;98342.25;5133158;27;20196;-53
2023/12/24 04:17:44;;;;;;;0.00;0.00;;;;;;;9.81;100.00;98343.94;5133922;27;20185;-53
2023/12/24 04:20:33;;;;;;;0.00;0.00;;;;;;;9.84;100.00;98351.63;5133060;27;20201;-52
2023/12/24 04:23:20;;;;;;;0.00;0.00;;;;;;;9.78;100.00;98352.09;5132861;27;20185;-52
2023/12/24 04:26:07;;;;;;;0.00;0.00;;;;;;;9.73;100.00;98355.06;5133108;27;20204;-52
2023/12/24 04:28:54;;;;;;;0.00;0.00;;;;;;;9.54;100.00;98349.44;5133780;27;20220;-52
2023/12/24 04:31:41;;;;;;;0.00;0.00;;;;;;;9.48;100.00;98351.69;5133891;27;20201;-52
2023/12/24 04:34:28;;;;;;;0.00;0.00;;;;;;;9.34;100.00;98342.09;5133882;28;20197;-52
2023/12/24 04:37:16;;;;;;;0.00;0.00;;;;;;;9.18;100.00;98343.22;5131558;28;20808;-53
2023/12/24 04:40:04;;;;;;;0.00;0.00;;;;;;;9.16;100.00;98358.31;5133845;28;20190;-52
2023/12/24 04:42:52;;;;;;;0.00;0.00;;;;;;;9.13;100.00;98362.97;5132920;28;20189;-52
2023/12/24 04:45:38;;;;;;;0.00;0.00;;;;;;;9.14;100.00;98362.88;5132715;28;20198;-53
2023/12/24 04:48:25;;;;;;;0.00;0.00;;;;;;;9.07;100.00;98376.63;5133437;28;20702;-53
2023/12/24 04:51:12;;;;;;;0.10;0.10;;;;;;;9.09;100.00;98372.94;5131427;28;20197;-53
2023/12/24 04:54:00;;;;;;;0.00;0.00;;;;;;;9.02;100.00;98368.19;5133059;27;20201;-53
2023/12/24 04:56:47;;;;;;;0.10;0.10;;;;;;;8.93;100.00;98360.91;5136771;27;20206;-53
2023/12/24 04:59:35;;;;;;;0.00;0.00;;;;;;;8.91;100.00;98362.81;5136762;27;20266;-52
2023/12/24 05:02:21;;;;;;;0.00;0.00;;;;;;;8.92;100.00;98386.47;5136719;27;20660;-52
2023/12/24 05:05:09;;;;;;;0.00;0.00;;;;;;;8.80;100.00;98382.06;5136568;27;20201;-53
2023/12/24 05:07:57;;;;;;;0.00;0.00;;;;;;;8.82;100.00;98380.97;5135205;27;20206;-53
2023/12/24 05:10:45;;;;;;;0.00;0.00;;;;;;;8.87;100.00;98383.28;5137501;27;20629;-53
2023/12/24 05:13:32;;;;;;;0.00;0.00;;;;;;;8.83;100.00;98390.59;5136331;27;20194;-52
2023/12/24 05:16:19;;;;;;;0.00;0.00;;;;;;;8.76;100.00;98386.69;5136465;27;20254;-52
2023/12/24 05:19:06;;;;;;;0.00;0.00;;;;;;;8.82;100.00;98394.19;5137239;27;20343;-53
2023/12/24 05:21:53;;;;;;;0.00;0.00;;;;;;;8.79;100.00;98399.69;5134856;27;20201;-52
2023/12/24 05:24:40;;;;;;;0.00;0.00;;;;;;;8.84;100.00;98397.56;5137367;27;20227;-53
2023/12/24 05:27:28;;;;;;;0.00;0.00;;;;;;;8.78;100.00;98391.84;5137440;27;20196;-53
2023/12/24 05:30:15;;;;;;;0.00;0.00;;;;;;;8.80;100.00;98392.59;5137121;27;20194;-53
2023/12/24 05:33:02;;;;;;;0.00;0.00;;;;;;;8.86;100.00;98384.25;5137225;27;20224;-53
2023/12/24 05:35:49;;;;;;;0.10;0.10;;;;;;;8.86;100.00;98392.16;5135717;27;20283;-53
2023/12/24 05:38:35;;;;;;;0.00;0.00;;;;;;;8.86;100.00;98387.72;5136857;27;20294;-53
2023/12/24 05:41:23;;;;;;;0.00;0.00;;;;;;;8.88;100.00;98396.41;5137025;27;20189;-52
2023/12/24 05:44:16;;;;;;;0.00;0.00;;;;;;;8.97;100.00;98400.19;5137184;27;20190;-52
2023/12/24 05:47:03;;;;;;;0.00;0.00;;;;;;;8.97;100.00;98418.66;5136848;27;20190;-52
2023/12/24 05:49:50;;;;;;;0.00;0.00;;;;;;;9.00;100.00;98405.28;5136708;27;20221;-53
2023/12/24 05:52:37;;;;;;;0.00;0.00;;;;;;;9.05;100.00;98403.13;5135584;27;20202;-52
2023/12/24 05:55:24;;;;;;;0.03;0.03;;;;;;;9.04;100.00;98390.88;5136529;27;20189;-53
2023/12/24 05:58:11;;;;;;;0.00;0.00;;;;;;;9.04;100.00;98405.91;5136830;27;20188;-52
2023/12/24 06:00:59;;;;;;;0.00;0.00;;;;;;;9.06;100.00;98396.06;5136716;27;20201;-52
2023/12/24 06:03:46;;;;;;;0.00;0.00;;;;;;;9.05;100.00;98397.00;5136542;27;20198;-52
2023/12/24 06:06:33;;;;;;;0.00;0.00;;;;;;;9.08;100.00;98394.19;5134375;27;20194;-52
2023/12/24 06:09:20;;;;;;;0.00;0.00;;;;;;;9.10;100.00;98394.91;5136418;27;20213;-53
2023/12/24 06:12:08;;;;;;;0.00;0.00;;;;;;;9.12;100.00;98403.56;5136275;27;20205;-53
2023/12/24 06:14:56;;;;;;;0.00;0.00;;;;;;;9.03;100.00;98402.41;5136361;27;20185;-53
2023/12/24 06:17:44;;;;;;;0.00;0.00;;;;;;;9.07;100.00;98405.66;5136225;27;20193;-53
2023/12/24 06:20:32;;;;;;;0.00;0.00;;;;;;;9.09;100.00;98403.78;5135562;27;20585;-53
2023/12/24 06:23:18;;;;;;;0.00;0.00;;;;;;;9.08;100.00;98399.47;5136320;27;20201;-52
2023/12/24 06:26:06;;;;;;;0.00;0.00;;;;;;;9.05;100.00;98391.72;5136290;27;20220;-53
2023/12/24 06:28:52;;;;;;;0.00;0.00;;;;;;;9.05;100.00;98392.56;5136080;27;20302;-53
2023/12/24 06:31:39;;;;;;;0.00;0.00;;;;;;;9.12;100.00;98400.91;5136086;27;20672;-52
2023/12/24 06:34:27;;;;;;;0.00;0.00;;;;;;;9.12;100.00;98393.84;5136080;27;20193;-52
2023/12/24 06:37:14;;;;;;;0.00;0.00;;;;;;;9.11;100.00;98383.38;5134680;27;20193;-52
2023/12/24 06:40:01;;;;;;;0.10;0.10;;;;;;;9.10;100.00;98384.34;5135915;27;20193;-52
2023/12/24 06:42:48;;;;;;;0.00;0.00;;;;;;;9.06;100.00;98381.06;5135857;27;20190;-52
2023/12/24 06:45:35;;;;;;;0.00;0.00;;;;;;;9.05;100.00;98375.88;5135834;27;20214;-52
2023/12/24 06:48:22;;;;;;;0.00;0.00;;;;;;;9.09;100.00;98383.50;5135748;27;20270;-52
2023/12/24 06:51:10;;;;;;;0.00;0.00;;;;;;;9.11;100.00;98389.50;5134002;27;20675;-52
2023/12/24 06:53:57;;;;;;;0.00;0.00;;;;;;;9.16;100.00;98384.72;5135607;27;20205;-52
2023/12/24 06:56:44;;;;;;;0.00;0.00;;;;;;;9.13;100.00;98378.84;5135602;27;20182;-52
2023/12/24 06:59:30;;;;;;;0.00;0.00;;;;;;;9.13;100.00;98399.97;5135541;27;20197;-52
2023/12/24 07:02:17;;;;;;;0.10;0.10;;;;;;;9.14;100.00;98384.00;5134457;27;20197;-52
2023/12/24 07:05:05;;;;;;;0.00;0.00;;;;;;;9.18;100.00;98384.66;5135377;27;20191;-52
2023/12/24 07:07:53;;;;;;;0.00;0.00;;;;;;;9.16;100.00;98392.66;5134107;27;20190;-52
2023/12/24 07:10:40;;;;;;;0.00;0.00;;;;;;;9.18;100.00;98393.41;5135255;27;20283;-53
2023/12/24 07:13:26;;;;;;;0.03;0.03;;;;;;;9.19;100.00;98396.91;5135201;27;20262;-52
2023/12/24 07:16:13;;;;;;;0.00;0.00;;;;;;;9.18;100.00;98400.50;5135222;27;20674;-53
2023/12/24 07:19:02;;;;;;;0.00;0.00;;;;;;;9.16;100.00;98387.38;5134789;27;20217;-52
2023/12/24 07:21:49;;;;;;;0.00;0.00;;;;;;;9.21;100.00;98387.06;5133834;27;20193;-53
2023/12/24 07:24:37;;;;;;;0.00;0.00;;;;;;;9.21;100.00;98391.50;5135075;27;20259;-53
2023/12/24 07:27:25;;;;;;;0.00;0.00;;;;;;;9.16;100.00;98391.81;5134941;27;20197;-52
2023/12/24 07:30:13;;;;;;;0.00;0.00;;;;;;;9.24;100.00;98386.84;5134757;27;20255;-53
2023/12/24 07:33:00;;;;;;;0.00;0.00;;;;;;;9.21;100.00;98368.56;5134896;27;20273;-53
2023/12/24 07:35:47;;;;;;;0.00;0.00;;;;;;;9.25;100.00;98379.75;5133495;27;20664;-52
2023/12/24 07:38:34;;;;;;;0.00;0.00;;;;;;;9.25;100.00;98370.03;5134864;27;20193;-53
2023/12/24 07:41:26;;;;;;;0.00;0.00;;;;;;;9.23;100.00;98379.03;5134567;27;20272;-52
2023/12/24 07:44:14;;;;;;;0.00;0.00;;;;;;;9.21;100.00;98363.28;5133695;27;20193;-53
2023/12/24 07:47:01;;;;;;;0.00;0.00;;;;;;;9.15;100.00;98371.63;5134767;27;20220;-52
2023/12/24 07:49:48;;;;;;;0.10;0.10;;;;;;;9.23;100.00;98368.47;5134517;27;20221;-52
2023/12/24 07:52:35;;;;;;;0.00;0.00;;;;;;;9.21;100.00;98376.50;5133244;27;20189;-52
2023/12/24 07:55:22;;;;;;;0.00;0.00;;;;;;;9.21;100.00;98368.56;5134414;27;20251;-53
2023/12/24 07:58:10;;;;;;;0.00;0.00;;;;;;;9.21;100.00;98362.44;5134086;27;20201;-52
2023/12/24 08:00:57;;;;;;;0.00;0.00;;;;;;;9.17;100.00;98373.25;5134379;27;20227;-53
2023/12/24 08:03:44;;;;;;;0.00;0.00;;;;;;;9.19;100.00;98367.84;5134435;27;20193;-53
2023/12/24 08:06:30;;;;;;;0.00;0.00;;;;;;;9.20;100.00;98366.03;5133092;27;20319;-52
2023/12/24 08:09:17;;;;;;;0.00;0.00;;;;;;;9.23;100.00;98371.94;5134216;27;20193;-52
2023/12/24 08:12:05;;;;;;;0.00;0.00;;;;;;;9.29;100.00;98371.50;5134259;27;20263;-52
2023/12/24 08:14:53;;;;;;;0.00;0.00;;;;;;;9.30;100.00;98370.56;5134227;27;20201;-52
2023/12/24 08:17:41;;;;;;;0.00;0.00;;;;;;;9.30;100.00;98367.91;5134034;27;20188;-52
2023/12/24 08:20:28;;;;;;;0.00;0.00;;;;;;;9.37;100.00;98363.88;5133785;27;20300;-52
2023/12/24 08:23:16;;;;;;;0.00;0.00;;;;;;;9.34;100.00;98369.38;5133966;27;20296;-53
2023/12/24 08:26:03;;;;;;;0.00;0.00;;;;;;;9.35;100.00;98372.84;5133993;27;20254;-53
2023/12/24 08:28:50;;;;;;;0.00;0.00;;;;;;;9.42;100.00;98360.91;5133543;27;20231;-53
2023/12/24 08:31:38;;;;;;;0.00;0.00;;;;;;;9.47;100.00;98366.72;5133536;27;20246;-53
2023/12/24 08:34:24;;;;;;;0.00;0.00;;;;;;;9.56;100.00;98373.13;5134024;27;20188;-52
2023/12/24 08:37:11;;;;;;;0.00;0.00;;;;;;;9.59;100.00;98371.09;5132472;28;20204;-53
2023/12/24 08:39:58;;;;;;;0.00;0.00;;;;;;;9.64;100.00;98371.59;5133517;28;20202;-53
2023/12/24 08:42:45;;;;;;;0.00;0.00;;;;;;;9.61;100.00;98365.69;5133823;28;20193;-53
2023/12/24 08:45:32;;;;;;;0.00;0.00;;;;;;;9.72;100.00;98365.75;5133849;28;20668;-53
2023/12/24 08:48:20;;;;;;;0.00;0.00;;;;;;;9.78;100.00;98364.47;5133650;28;20239;-52
2023/12/24 08:51:07;;;;;;;0.00;0.00;;;;;;;9.79;100.00;98340.56;5132266;28;20232;-52
2023/12/24 08:53:54;;;;;;;0.00;0.00;;;;;;;9.94;100.00;98362.38;5133707;28;20331;-53
2023/12/24 08:56:41;;;;;;;0.00;0.00;;;;;;;9.88;100.00;98362.84;5133573;28;20189;-53
2023/12/24 08:59:28;;;;;;;0.00;0.00;;;;;;;9.99;100.00;98352.31;5133738;28;20227;-52
2023/12/24 09:02:15;;;;;;;0.00;0.00;;;;;;;10.01;100.00;98359.16;5133532;28;20197;-52
2023/12/24 09:05:04;;;;;;;0.00;0.00;;;;;;;10.08;100.00;98354.25;5133523;28;20197;-53
2023/12/24 09:07:51;;;;;;;0.00;0.00;;;;;;;10.09;100.00;98357.75;5132355;28;20213;-52
2023/12/24 09:10:37;;;;;;;0.00;0.00;;;;;;;10.12;100.00;98347.75;5132422;28;20217;-53
2023/12/24 09:13:24;;;;;;;0.10;0.10;;;;;;;10.16;100.00;98356.34;5133582;28;20254;-53
2023/12/24 09:16:13;;;;;;;0.00;0.00;;;;;;;10.05;100.00;98338.63;5133565;28;20197;-52
2023/12/24 09:19:00;;;;;;;0.00;0.00;;;;;;;10.15;100.00;98355.50;5133352;28;20291;-53
2023/12/24 09:21:48;;;;;;;0.00;0.00;;;;;;;10.14;100.00;98343.22;5131956;28;20190;-53
2023/12/24 09:24:35;;;;;;;0.00;0.00;;;;;;;10.16;100.00;98346.59;5133449;28;20244;-53
2023/12/24 09:27:22;;;;;;;0.00;0.00;;;;;;;10.14;100.00;98345.88;5133462;28;20197;-53
2023/12/24 09:30:10;;;;;;;0.10;0.10;;;;;;;10.23;100.00;98349.63;5133260;28;20212;-52
2023/12/24 09:32:57;;;;;;;0.00;0.00;;;;;;;10.33;100.00;98348.00;5133344;28;20239;-52
2023/12/24 09:35:44;;;;;;;0.00;0.00;;;;;;;10.31;100.00;98328.72;5131982;28;20259;-53
2023/12/24 09:38:36;;;;;;;0.00;0.00;;;;;;;10.40;100.00;98356.31;5133105;28;20189;-53
2023/12/24 09:41:23;;;;;;;0.00;0.00;;;;;;;10.47;100.00;98352.22;5134125;27;20194;-52
2023/12/24 09:44:10;;;;;;;0.00;0.00;;;;;;;10.51;100.00;98351.88;5137119;27;20308;-52
2023/12/24 09:46:57;;;;;;;0.00;0.00;;;;;;;10.54;100.00;98351.66;5136769;27;20646;-53
2023/12/24 09:49:44;;;;;;;0.00;0.00;;;;;;;10.48;100.00;98346.81;5136838;27;20276;-52
2023/12/24 09:52:34;;;;;;;0.00;0.00;;;;;;;10.57;100.00;98345.28;5135540;27;20243;-52
2023/12/24 09:55:22;;;;;;;0.00;0.00;;;;;;;10.59;100.00;98349.47;5136644;27;20262;-52
2023/12/24 09:58:08;;;;;;;0.00;0.00;;;;;;;10.58;100.00;98342.50;5136648;27;20632;-52
2023/12/24 10:00:55;;;;;;;0.00;0.00;;;;;;;10.55;100.00;98339.25;5136633;27;20190;-53
2023/12/24 10:03:42;;;;;;;0.07;0.07;;;;;;;10.54;100.00;98342.88;5136496;27;20193;-52
2023/12/24 10:06:30;;;;;;;0.00;0.00;;;;;;;10.56;100.00;98339.13;5135291;27;20283;-52
2023/12/24 10:09:17;;;;;;;0.00;0.00;;;;;;;10.63;100.00;98341.31;5135850;27;20193;-52
2023/12/24 10:12:06;;;;;;;0.00;0.00;;;;;;;10.56;100.00;98367.41;5136003;27;20691;-52
2023/12/24 10:14:58;;;;;;;0.00;0.00;;;;;;;10.63;100.00;98336.03;5136282;27;20213;-52
2023/12/24 10:17:45;;;;;;;0.00;0.00;;;;;;;10.63;100.00;98320.97;5136355;27;20239;-53
2023/12/24 10:20:32;;;;;;;0.00;0.00;;;;;;;10.69;100.00;98323.13;5134603;27;20186;-53
2023/12/24 10:23:20;;;;;;;0.00;0.00;;;;;;;10.67;100.00;98335.66;5136281;27;20774;-53
2023/12/24 10:26:11;;;;;;;0.00;0.00;;;;;;;10.66;100.00;98336.63;5136181;27;20201;-53
2023/12/24 10:29:00;;;;;;;0.00;0.00;;;;;;;10.61;100.00;98299.03;5136377;27;20202;-53
2023/12/24 10:31:58;;;;;;;0.00;0.00;;;;;;;10.70;100.00;98313.38;5135833;27;20286;-53
2023/12/24 10:34:57;;;;;;;0.00;0.00;;;;;;;10.74;100.00;98309.53;5135932;27;20186;-53
2023/12/24 10:37:44;;;;;;;0.00;0.00;;;;;;;10.71;100.00;98308.00;5134585;27;20208;-53
2023/12/24 10:40:30;;;;;;;0.00;0.00;;;;;;;10.69;100.00;98304.59;5135852;27;20231;-53
2023/12/24 10:43:17;;;;;;;0.00;0.00;;;;;;;10.79;100.00;98286.16;5135624;27;20327;-53
2023/12/24 10:46:06;;;;;;;0.07;0.07;;;;;;;10.87;100.00;98305.78;5135860;27;20193;-53
2023/12/24 10:48:52;;;;;;;0.00;0.00;;;;;;;10.76;100.00;98297.03;5135827;27;20186;-53
2023/12/24 10:51:40;;;;;;;0.00;0.00;;;;;;;10.86;100.00;98300.63;5133890;27;20394;-53
2023/12/24 10:54:28;;;;;;;0.00;0.00;;;;;;;10.89;100.00;98290.63;5135259;27;20197;-53
2023/12/24 10:57:28;;;;;;;0.00;0.00;;;;;;;10.91;100.00;98287.03;5134957;27;20205;-53
2023/12/24 11:00:16;;;;;;;0.00;0.00;;;;;;;10.91;100.00;98287.03;5134361;27;20195;-53
2023/12/24 11:03:04;;;;;;;0.00;0.00;;;;;;;10.86;100.00;98276.78;5134627;27;20304;-53
2023/12/24 11:05:52;;;;;;;0.00;0.00;;;;;;;10.87;100.00;98278.47;5133385;27;20220;-52
2023/12/24 11:08:39;;;;;;;0.00;0.00;;;;;;;10.82;100.00;98278.00;5134013;27;20205;-53
2023/12/24 11:11:26;;;;;;;0.00;0.00;;;;;;;10.84;100.00;98271.63;5134000;27;20263;-53
2023/12/24 11:14:40;;;;;;;0.00;0.00;;;;;;;10.88;100.00;98264.25;5134831;27;20239;-53
2023/12/24 11:17:49;;;;;;;0.00;0.00;;;;;;;10.83;100.00;98261.97;5135272;27;20251;-53
2023/12/24 11:20:44;;;;;;;0.00;0.00;;;;;;;10.81;100.00;98261.28;5133631;27;20213;-53
2023/12/24 11:23:33;;;;;;;0.00;0.00;;;;;;;10.75;100.00;98267.03;5135021;27;20209;-53
2023/12/24 11:26:30;;;;;;;0.00;0.00;;;;;;;10.87;100.00;98259.91;5134790;27;20255;-53
2023/12/24 11:29:42;;;;;;;0.00;0.00;;;;;;;10.75;100.00;98261.75;5134829;27;20197;-50
2023/12/24 11:32:36;;;;;;;0.00;0.00;;;;;;;10.74;100.00;98253.94;5134087;27;20216;-51
2023/12/24 11:35:55;;;;;;;0.00;0.00;;;;;;;10.85;100.00;98251.25;5134295;27;20223;-53
2023/12/24 11:38:42;;;;;;;0.00;0.00;;;;;;;10.75;100.00;98245.84;5134762;27;20197;-53
2023/12/24 11:41:29;;;;;;;0.00;0.00;;;;;;;10.74;100.00;98228.28;5134336;27;20186;-53
2023/12/24 11:44:16;;;;;;;0.00;0.00;;;;;;;10.82;100.00;98227.69;5134677;27;20232;-53
2023/12/24 11:47:15;;;;;;;0.00;0.00;;;;;;;10.74;100.00;98230.09;5134610;27;20225;-53
2023/12/24 11:50:03;;;;;;;0.10;0.10;;;;;;;10.78;100.00;98218.28;5134259;27;20207;-53
2023/12/24 11:52:52;;;;;;;0.00;0.00;;;;;;;10.70;100.00;98208.28;5133833;27;20209;-53
2023/12/24 11:55:40;;;;;;;0.10;0.10;;;;;;;10.71;100.00;98207.34;5134408;27;20684;-53
2023/12/24 11:58:27;;;;;;;0.00;0.00;;;;;;;10.69;100.00;98198.66;5134445;27;20188;-53
2023/12/24 12:01:14;;;;;;;0.00;0.00;;;;;;;10.68;100.00;98194.34;5134372;27;20205;-52
2023/12/24 12:04:02;;;;;;;0.00;0.00;;;;;;;10.74;100.00;98187.72;5133666;27;20193;-53
2023/12/24 12:06:49;;;;;;;0.00;0.00;;;;;;;10.73;100.00;98209.88;5132991;27;20190;-53
2023/12/24 12:09:37;;;;;;;0.03;0.03;;;;;;;10.70;100.00;98197.69;5134275;27;20215;-53
2023/12/24 12:12:24;;;;;;;0.00;0.00;;;;;;;10.69;100.00;98185.41;5134162;27;20217;-52
2023/12/24 12:15:11;;;;;;;0.00;0.00;;;;;;;10.69;100.00;98179.28;5134009;27;20196;-52
2023/12/24 12:17:58;;;;;;;0.00;0.00;;;;;;;10.67;100.00;98174.13;5134113;27;20194;-53
2023/12/24 12:20:45;;;;;;;0.00;0.00;;;;;;;10.70;100.00;98202.16;5132674;27;20213;-53
2023/12/24 12:23:32;;;;;;;0.00;0.00;;;;;;;10.71;100.00;98209.13;5134038;27;20197;-52
2023/12/24 12:26:20;;;;;;;0.00;0.00;;;;;;;10.79;100.00;98207.56;5133451;27;20266;-52
2023/12/24 12:29:07;;;;;;;0.00;0.00;;;;;;;10.74;100.00;98196.50;5134052;27;20185;-52
2023/12/24 12:31:58;;;;;;;0.10;0.10;;;;;;;10.73;100.00;98205.41;5133693;27;20224;-52
2023/12/24 12:34:45;;;;;;;0.00;0.00;;;;;;;10.75;100.00;98214.06;5133985;27;20197;-52
2023/12/24 12:37:33;;;;;;;0.00;0.00;;;;;;;10.72;100.00;98203.72;5132729;28;20201;-53
2023/12/24 12:40:20;;;;;;;0.00;0.00;;;;;;;10.78;100.00;98208.53;5133883;28;20186;-53
2023/12/24 12:43:13;;;;;;;0.00;0.00;;;;;;;10.70;100.00;98218.03;5133806;28;20189;-52
2023/12/24 12:46:00;;;;;;;0.00;0.00;;;;;;;10.73;100.00;98220.47;5133403;28;20239;-53
2023/12/24 12:48:47;;;;;;;0.00;0.00;;;;;;;10.69;100.00;98217.19;5133835;28;20196;-53
2023/12/24 12:51:34;;;;;;;0.10;0.10;;;;;;;10.66;100.00;98213.97;5131672;28;20220;-52
2023/12/24 12:54:21;;;;;;;0.00;0.00;;;;;;;10.63;100.00;98223.00;5133558;28;20407;-53
2023/12/24 12:57:08;;;;;;;0.00;0.00;;;;;;;10.60;100.00;98220.56;5133735;28;20239;-53
2023/12/24 13:00:09;;;;;;;0.00;0.00;;;;;;;10.64;100.00;98207.94;5133739;28;20197;-52
2023/12/24 13:03:06;;;;;;;0.00;0.00;;;;;;;10.69;100.00;98217.19;5133524;28;20188;-53
2023/12/24 13:05:54;;;;;;;0.00;0.00;;;;;;;10.68;100.00;98223.47;5132232;28;20669;-52
2023/12/24 13:08:41;;;;;;;0.00;0.00;;;;;;;10.67;100.00;98223.59;5133570;28;20193;-52